Alpental, Washington
Current Conditions -  °F | °C
As of 10:53 PM on Tuesday 21 Oct 2014 (Local Time) from KRNT Reporting Station
Overcast Overcast  
Wind Chill: 57°   Ceiling: 10000
Heat Index: 57°   Visibility: 10mi
Dew Point: 50°   Wind: 5mph
Humidity: 77%   Direction: 110°ESE
Pressure: 29.76"   Gusts: NA
Location:  47.4076°N, 121.414°W
Report Text: KRNT 220553Z AUTO 11004KT 10SM SCT065 SCT080 OVC100 14/10 A2976 RMK AO2 RAB09E19 SLP083 P0000 60000 T01390100 10161 20139 56023
Loading
Personal Weather Stations






























Interactive Weather Map
Tropical Storm Tracking
New forecast layout! Learn more

10-Day Weather Forecast

Advertisements
Track Severe Weather on mobile